Shin Mei Maru — JG5617 — position and weather

sailwx.info

Track history (hours):
 
Tides and Currents Weather Stations Pressure Air Temp Water Temp Dewpoint Dewpoint Depression Visibility Wind Speed Wind Dir Waves Ship Positions

Shin Mei Maru

Last reported at 2014-Nov-27 10:19 UTC. Time now 2014-Nov-28 12:14 UTC.
Position N 34°01' E 134°58'.

Length 160 m; draft 6.8 m.

Type: Cargo ship. MMSI: 431100922.

Date/timePositionNaut miles runAvg speedWind from/ knotsBaromVisibWave heightAir tempDewpointWater temp
2014-Nov-27 10:19N 34°01' E 134°58'1418.7
2014-Nov-27 09:34N 34°15' E 134°58'1818.2
2014-Nov-27 08:33N 34°30' E 135°12'1312.7
2014-Nov-27 07:33N 34°37' E 135°25'0 0.0
2014-Nov-27 06:20N 34°37' E 135°25'0 0.0
2014-Nov-27 04:32N 34°37' E 135°25'0 0.0
2014-Nov-27 03:14N 34°37' E 135°25'0 0.0
2014-Nov-27 01:26N 34°37' E 135°25'0 0.0
2014-Nov-27 00:33N 34°37' E 135°25'1414.2
2014-Nov-26 23:34N 34°28' E 135°11'1616.4
2014-Nov-26 22:34N 34°15' E 134°60'1716.8
2014-Nov-26 21:34N 33°58' E 134°59'23814.8
2014-Nov-26 05:30N 35°03' E 139°37'1514.8
2014-Nov-26 04:30N 35°16' E 139°45'1313.9
2014-Nov-26 03:33N 35°29' E 139°50'9 3.0
2014-Nov-26 00:25N 35°38' E 139°46'0 0.0
2014-Nov-25 22:25N 35°38' E 139°46'5 6.4
2014-Nov-25 21:33N 35°34' E 139°50'1313.0
2014-Nov-25 20:34N 35°21' E 139°45'1313.4
2014-Nov-25 19:33N 35°08' E 139°47'20 9.8
2014-Nov-25 17:29N 34°57' E 140°08'  
2014-Nov-20 11:24N 33°57' E 134°59'1517.5
2014-Nov-20 10:33N 34°12' E 134°59'1616.3
2014-Nov-20 09:33N 34°28' E 135°02'1515.3
2014-Nov-20 08:33N 34°36' E 135°18'6 5.1
2014-Nov-20 07:26N 34°37' E 135°25'0 0.0
2014-Nov-20 06:15N 34°37' E 135°25'0 0.0
2014-Nov-20 05:32N 34°37' E 135°25'0 0.0
2014-Nov-20 04:08N 34°37' E 135°25'0 0.0
2014-Nov-20 03:32N 34°37' E 135°25'0 0.0
2014-Nov-20 02:27N 34°37' E 135°25'0 0.0
2014-Nov-20 01:20N 34°37' E 135°25'1 1.3
2014-Nov-20 00:34N 34°36' E 135°24'1717.1
2014-Nov-19 23:33N 34°27' E 135°06'1717.4
2014-Nov-19 22:33N 34°11' E 134°59'24314.2
2014-Nov-19 05:24N 35°11' E 139°45'1113.0
2014-Nov-19 04:33N 35°21' E 139°43'1414.3
2014-Nov-19 03:33N 35°35' E 139°47'3 0.6
2014-Nov-18 22:24N 35°38' E 139°46'5 5.4
2014-Nov-18 21:34N 35°34' E 139°49'1312.5
2014-Nov-18 20:33N 35°22' E 139°45'1312.9
2014-Nov-18 19:33N 35°09' E 139°47'  
Track history (hours):
 
Tides and Currents Weather Stations Pressure Air Temp Water Temp Dewpoint Dewpoint Depression Visibility Wind Speed Wind Dir Waves Ship Positions

Shin Mei Maru

Last reported at 2014-Nov-27 10:19 UTC. Time now 2014-Nov-28 12:14 UTC.
Position N 34°01' E 134°58'.

Length 160 m; draft 6.8 m.

Type: Cargo ship. MMSI: 431100922.

Date/timePositionNaut miles runAvg speedWind from/ knotsBaromVisibWave heightAir tempDewpointWater temp
2014-Nov-27 10:19N 34°01' E 134°58'1418.7
2014-Nov-27 09:34N 34°15' E 134°58'1818.2
2014-Nov-27 08:33N 34°30' E 135°12'1312.7
2014-Nov-27 07:33N 34°37' E 135°25'0 0.0
2014-Nov-27 06:20N 34°37' E 135°25'0 0.0
2014-Nov-27 04:32N 34°37' E 135°25'0 0.0
2014-Nov-27 03:14N 34°37' E 135°25'0 0.0
2014-Nov-27 01:26N 34°37' E 135°25'0 0.0
2014-Nov-27 00:33N 34°37' E 135°25'1414.2
2014-Nov-26 23:34N 34°28' E 135°11'1616.4
2014-Nov-26 22:34N 34°15' E 134°60'1716.8
2014-Nov-26 21:34N 33°58' E 134°59'23814.8
2014-Nov-26 05:30N 35°03' E 139°37'1514.8
2014-Nov-26 04:30N 35°16' E 139°45'1313.9
2014-Nov-26 03:33N 35°29' E 139°50'9 3.0
2014-Nov-26 00:25N 35°38' E 139°46'0 0.0
2014-Nov-25 22:25N 35°38' E 139°46'5 6.4
2014-Nov-25 21:33N 35°34' E 139°50'1313.0
2014-Nov-25 20:34N 35°21' E 139°45'1313.4
2014-Nov-25 19:33N 35°08' E 139°47'20 9.8
2014-Nov-25 17:29N 34°57' E 140°08'  
2014-Nov-20 11:24N 33°57' E 134°59'1517.5
2014-Nov-20 10:33N 34°12' E 134°59'1616.3
2014-Nov-20 09:33N 34°28' E 135°02'1515.3
2014-Nov-20 08:33N 34°36' E 135°18'6 5.1
2014-Nov-20 07:26N 34°37' E 135°25'0 0.0
2014-Nov-20 06:15N 34°37' E 135°25'0 0.0
2014-Nov-20 05:32N 34°37' E 135°25'0 0.0
2014-Nov-20 04:08N 34°37' E 135°25'0 0.0
2014-Nov-20 03:32N 34°37' E 135°25'0 0.0
2014-Nov-20 02:27N 34°37' E 135°25'0 0.0
2014-Nov-20 01:20N 34°37' E 135°25'1 1.3
2014-Nov-20 00:34N 34°36' E 135°24'1717.1
2014-Nov-19 23:33N 34°27' E 135°06'1717.4
2014-Nov-19 22:33N 34°11' E 134°59'24314.2
2014-Nov-19 05:24N 35°11' E 139°45'1113.0
2014-Nov-19 04:33N 35°21' E 139°43'1414.3
2014-Nov-19 03:33N 35°35' E 139°47'3 0.6
2014-Nov-18 22:24N 35°38' E 139°46'5 5.4
2014-Nov-18 21:34N 35°34' E 139°49'1312.5
2014-Nov-18 20:33N 35°22' E 139°45'1312.9
2014-Nov-18 19:33N 35°09' E 139°47'  

Dump ship's entire track history